sensor_id;sensor_type;location;lat;lon;timestamp;pressure;altitude;pressure_sealevel;temperature;humidity
56668;BME280;42542;48.360;10.958;2023-04-03T00:02:53;96741.59;;;3.42;76.99
56668;BME280;42542;48.360;10.958;2023-04-03T00:05:58;96740.13;;;3.38;76.14
56668;BME280;42542;48.360;10.958;2023-04-03T00:09:10;96733.34;;;3.34;76.15
56668;BME280;42542;48.360;10.958;2023-04-03T00:12:15;96728.91;;;3.35;76.78
56668;BME280;42542;48.360;10.958;2023-04-03T00:15:21;96728.91;;;3.35;77.25
56668;BME280;42542;48.360;10.958;2023-04-03T00:18:35;96736.75;;;3.36;77.74
56668;BME280;42542;48.360;10.958;2023-04-03T00:21:43;96729.78;;;3.35;76.93
56668;BME280;42542;48.360;10.958;2023-04-03T00:24:45;96724.59;;;3.34;77.14
56668;BME280;42542;48.360;10.958;2023-04-03T00:27:47;96725.75;;;3.30;76.46
56668;BME280;42542;48.360;10.958;2023-04-03T00:30:50;96727.47;;;3.31;77.15
56668;BME280;42542;48.360;10.958;2023-04-03T00:33:56;96735.38;;;3.31;77.15
56668;BME280;42542;48.360;10.958;2023-04-03T00:37:01;96725.09;;;3.26;76.67
56668;BME280;42542;48.360;10.958;2023-04-03T00:40:04;96724.38;;;3.24;76.77
56668;BME280;42542;48.360;10.958;2023-04-03T00:43:24;96731.88;;;3.30;77.12
56668;BME280;42542;48.360;10.958;2023-04-03T00:46:29;96723.13;;;3.30;76.54
56668;BME280;42542;48.360;10.958;2023-04-03T00:49:35;96728.31;;;3.31;76.71
56668;BME280;42542;48.360;10.958;2023-04-03T00:52:41;96731.03;;;3.30;76.46
56668;BME280;42542;48.360;10.958;2023-04-03T00:55:52;96725.00;;;3.28;75.36
56668;BME280;42542;48.360;10.958;2023-04-03T00:59:15;96724.81;;;3.31;76.37
56668;BME280;42542;48.360;10.958;2023-04-03T01:02:21;96729.25;;;3.30;75.44
56668;BME280;42542;48.360;10.958;2023-04-03T01:05:30;96725.75;;;3.30;75.71
56668;BME280;42542;48.360;10.958;2023-04-03T01:08:43;96715.09;;;3.31;75.25
56668;BME280;42542;48.360;10.958;2023-04-03T01:11:50;96722.78;;;3.34;75.56
56668;BME280;42542;48.360;10.958;2023-04-03T01:14:57;96722.88;;;3.33;74.85
56668;BME280;42542;48.360;10.958;2023-04-03T01:18:09;96729.88;;;3.34;75.28
56668;BME280;42542;48.360;10.958;2023-04-03T01:21:42;96725.75;;;3.30;74.70
56668;BME280;42542;48.360;10.958;2023-04-03T01:25:10;96729.44;;;3.27;74.41
56668;BME280;42542;48.360;10.958;2023-04-03T01:28:18;96725.84;;;3.28;74.96
56668;BME280;42542;48.360;10.958;2023-04-03T01:31:28;96723.22;;;3.28;74.35
56668;BME280;42542;48.360;10.958;2023-04-03T01:34:36;96718.97;;;3.26;74.57
56668;BME280;42542;48.360;10.958;2023-04-03T01:37:38;96717.41;;;3.23;74.46
56668;BME280;42542;48.360;10.958;2023-04-03T01:40:41;96718.03;;;3.27;74.10
56668;BME280;42542;48.360;10.958;2023-04-03T01:43:58;96727.03;;;3.24;74.22
56668;BME280;42542;48.360;10.958;2023-04-03T01:47:06;96736.00;;;3.22;74.01
56668;BME280;42542;48.360;10.958;2023-04-03T01:50:15;96724.06;;;3.16;73.48
56668;BME280;42542;48.360;10.958;2023-04-03T01:53:17;96723.31;;;3.14;74.12
56668;BME280;42542;48.360;10.958;2023-04-03T01:56:25;96725.94;;;3.14;73.53
56668;BME280;42542;48.360;10.958;2023-04-03T01:59:30;96730.38;;;3.13;74.50
56668;BME280;42542;48.360;10.958;2023-04-03T02:02:33;96723.50;;;3.11;74.71
56668;BME280;42542;48.360;10.958;2023-04-03T02:05:36;96726.91;;;3.13;74.47
56668;BME280;42542;48.360;10.958;2023-04-03T02:08:42;96717.28;;;3.12;74.29
56668;BME280;42542;48.360;10.958;2023-04-03T02:11:45;96727.00;;;3.11;74.52
56668;BME280;42542;48.360;10.958;2023-04-03T02:14:50;96717.69;;;3.06;74.08
56668;BME280;42542;48.360;10.958;2023-04-03T02:17:56;96727.84;;;3.12;74.74
56668;BME280;42542;48.360;10.958;2023-04-03T02:21:02;96723.50;;;3.11;74.44
56668;BME280;42542;48.360;10.958;2023-04-03T02:24:05;96722.66;;;3.10;74.41
56668;BME280;42542;48.360;10.958;2023-04-03T02:27:16;96718.22;;;3.11;74.70
56668;BME280;42542;48.360;10.958;2023-04-03T02:30:19;96718.97;;;3.13;75.31
56668;BME280;42542;48.360;10.958;2023-04-03T02:33:25;96711.25;;;3.10;75.07
56668;BME280;42542;48.360;10.958;2023-04-03T02:36:29;96719.72;;;3.15;75.71
56668;BME280;42542;48.360;10.958;2023-04-03T02:39:44;96712.66;;;3.16;75.39
56668;BME280;42542;48.360;10.958;2023-04-03T02:42:52;96721.63;;;3.13;75.28
56668;BME280;42542;48.360;10.958;2023-04-03T02:46:00;96720.66;;;3.14;75.83
56668;BME280;42542;48.360;10.958;2023-04-03T02:49:06;96717.09;;;3.15;75.19
56668;BME280;42542;48.360;10.958;2023-04-03T02:52:09;96716.66;;;3.08;75.06
56668;BME280;42542;48.360;10.958;2023-04-03T02:55:15;96723.72;;;3.08;75.30
56668;BME280;42542;48.360;10.958;2023-04-03T02:58:24;96716.31;;;3.00;75.27
56668;BME280;42542;48.360;10.958;2023-04-03T03:01:32;96724.34;;;2.99;74.90
56668;BME280;42542;48.360;10.958;2023-04-03T03:04:39;96727.84;;;2.99;75.11
56668;BME280;42542;48.360;10.958;2023-04-03T03:07:43;96733.97;;;3.00;75.79
56668;BME280;42542;48.360;10.958;2023-04-03T03:10:47;96725.28;;;2.98;75.28
56668;BME280;42542;48.360;10.958;2023-04-03T03:13:52;96717.78;;;2.92;75.76
56668;BME280;42542;48.360;10.958;2023-04-03T03:17:08;96718.44;;;2.95;76.35
56668;BME280;42542;48.360;10.958;2023-04-03T03:20:14;96729.72;;;2.97;76.63
56668;BME280;42542;48.360;10.958;2023-04-03T03:23:29;96723.50;;;2.98;75.95
56668;BME280;42542;48.360;10.958;2023-04-03T03:26:44;96719.91;;;2.99;76.59
56668;BME280;42542;48.360;10.958;2023-04-03T03:29:47;96728.69;;;3.00;76.56
56668;BME280;42542;48.360;10.958;2023-04-03T03:32:53;96720.94;;;2.97;76.44
56668;BME280;42542;48.360;10.958;2023-04-03T03:36:06;96724.66;;;2.94;75.93
56668;BME280;42542;48.360;10.958;2023-04-03T03:39:13;96724.66;;;2.94;76.78
56668;BME280;42542;48.360;10.958;2023-04-03T03:42:20;96725.59;;;2.93;76.90
56668;BME280;42542;48.360;10.958;2023-04-03T03:45:25;96728.25;;;2.93;76.98
56668;BME280;42542;48.360;10.958;2023-04-03T03:48:30;96720.31;;;2.93;76.50
56668;BME280;42542;48.360;10.958;2023-04-03T03:51:38;96722.22;;;2.91;77.47
56668;BME280;42542;48.360;10.958;2023-04-03T03:54:56;96728.25;;;2.93;77.37
56668;BME280;42542;48.360;10.958;2023-04-03T03:58:11;96718.63;;;2.92;76.81
56668;BME280;42542;48.360;10.958;2023-04-03T04:01:18;96721.28;;;2.92;77.48
56668;BME280;42542;48.360;10.958;2023-04-03T04:04:22;96718.94;;;2.88;77.51
56668;BME280;42542;48.360;10.958;2023-04-03T04:07:28;96729.38;;;2.89;77.14
56668;BME280;42542;48.360;10.958;2023-04-03T04:10:37;96727.50;;;2.91;78.16
56668;BME280;42542;48.360;10.958;2023-04-03T04:13:57;96729.94;;;2.94;77.47
56668;BME280;42542;48.360;10.958;2023-04-03T04:17:03;96732.59;;;2.94;78.25
56668;BME280;42542;48.360;10.958;2023-04-03T04:20:06;96737.66;;;2.97;78.62
56668;BME280;42542;48.360;10.958;2023-04-03T04:23:12;96735.75;;;2.99;78.79
56668;BME280;42542;48.360;10.958;2023-04-03T04:26:17;96736.69;;;2.98;78.53
56668;BME280;42542;48.360;10.958;2023-04-03T04:29:21;96733.97;;;3.00;78.86
56668;BME280;42542;48.360;10.958;2023-04-03T04:32:36;96735.00;;;2.97;78.64
56668;BME280;42542;48.360;10.958;2023-04-03T04:35:42;96730.78;;;2.95;77.71
56668;BME280;42542;48.360;10.958;2023-04-03T04:38:50;96730.13;;;2.91;77.88
56668;BME280;42542;48.360;10.958;2023-04-03T04:41:57;96728.44;;;2.90;78.33
56668;BME280;42542;48.360;10.958;2023-04-03T04:45:06;96734.47;;;2.92;78.64
56668;BME280;42542;48.360;10.958;2023-04-03T04:48:14;96737.31;;;2.89;78.46
56668;BME280;42542;48.360;10.958;2023-04-03T04:51:18;96737.44;;;2.88;78.35
56668;BME280;42542;48.360;10.958;2023-04-03T04:54:20;96738.47;;;2.85;78.48
56668;BME280;42542;48.360;10.958;2023-04-03T04:57:24;96736.69;;;2.86;78.08
56668;BME280;42542;48.360;10.958;2023-04-03T05:00:36;96736.78;;;2.84;78.88
56668;BME280;42542;48.360;10.958;2023-04-03T05:03:40;96740.25;;;2.85;77.99
56668;BME280;42542;48.360;10.958;2023-04-03T05:06:44;96737.81;;;2.82;78.51
56668;BME280;42542;48.360;10.958;2023-04-03T05:09:55;96739.50;;;2.83;79.08
56668;BME280;42542;48.360;10.958;2023-04-03T05:13:00;96739.50;;;2.83;78.44
56668;BME280;42542;48.360;10.958;2023-04-03T05:16:02;96742.16;;;2.83;79.01
56668;BME280;42542;48.360;10.958;2023-04-03T05:19:04;96750.91;;;2.83;78.76
56668;BME280;42542;48.360;10.958;2023-04-03T05:22:17;96747.44;;;2.83;78.69
56668;BME280;42542;48.360;10.958;2023-04-03T05:25:38;96749.13;;;2.84;78.76
56668;BME280;42542;48.360;10.958;2023-04-03T05:28:44;96752.63;;;2.84;79.34
56668;BME280;42542;48.360;10.958;2023-04-03T05:32:12;96763.09;;;2.86;78.63
56668;BME280;42542;48.360;10.958;2023-04-03T05:35:25;96755.34;;;2.83;78.71
56668;BME280;42542;48.360;10.958;2023-04-03T05:38:33;96758.00;;;2.83;78.70
56668;BME280;42542;48.360;10.958;2023-04-03T05:41:37;96758.94;;;2.82;79.62
56668;BME280;42542;48.360;10.958;2023-04-03T05:44:42;96757.06;;;2.84;79.06
56668;BME280;42542;48.360;10.958;2023-04-03T05:47:46;96763.19;;;2.84;78.89
56668;BME280;42542;48.360;10.958;2023-04-03T05:50:59;96757.06;;;2.84;79.23
56668;BME280;42542;48.360;10.958;2023-04-03T05:54:26;96763.19;;;2.84;79.32
56668;BME280;42542;48.360;10.958;2023-04-03T05:57:53;96764.78;;;2.87;79.59
56668;BME280;42542;48.360;10.958;2023-04-03T06:00:59;96775.34;;;2.87;79.79
56668;BME280;42542;48.360;10.958;2023-04-03T06:04:05;96760.63;;;2.83;79.60
56668;BME280;42542;48.360;10.958;2023-04-03T06:07:15;96772.69;;;2.87;79.31
56668;BME280;42542;48.360;10.958;2023-04-03T06:10:19;96767.28;;;2.88;80.02
56668;BME280;42542;48.360;10.958;2023-04-03T06:13:24;96776.72;;;2.92;80.44
56668;BME280;42542;48.360;10.958;2023-04-03T06:16:29;96768.72;;;2.94;79.79
56668;BME280;42542;48.360;10.958;2023-04-03T06:19:35;96763.44;;;2.94;80.26
56668;BME280;42542;48.360;10.958;2023-04-03T06:22:57;96771.13;;;2.97;80.38
56668;BME280;42542;48.360;10.958;2023-04-03T06:26:00;96774.41;;;3.00;79.78
56668;BME280;42542;48.360;10.958;2023-04-03T06:29:10;96778.00;;;2.99;79.94
56668;BME280;42542;48.360;10.958;2023-04-03T06:32:16;96776.13;;;3.01;80.12
56668;BME280;42542;48.360;10.958;2023-04-03T06:35:19;96767.88;;;3.06;80.18
56668;BME280;42542;48.360;10.958;2023-04-03T06:38:34;96776.56;;;3.08;80.57
56668;BME280;42542;48.360;10.958;2023-04-03T06:41:38;96777.19;;;3.11;79.71
56668;BME280;42542;48.360;10.958;2023-04-03T06:45:05;96775.28;;;3.13;80.69
56668;BME280;42542;48.360;10.958;2023-04-03T06:48:12;96782.19;;;3.16;79.92
56668;BME280;42542;48.360;10.958;2023-04-03T06:51:20;96781.09;;;3.19;80.20
56668;BME280;42542;48.360;10.958;2023-04-03T06:54:25;96785.25;;;3.23;80.06
56668;BME280;42542;48.360;10.958;2023-04-03T06:57:28;96784.31;;;3.24;79.50
56668;BME280;42542;48.360;10.958;2023-04-03T07:00:34;96782.50;;;3.24;79.67
56668;BME280;42542;48.360;10.958;2023-04-03T07:03:40;96779.63;;;3.27;79.74
56668;BME280;42542;48.360;10.958;2023-04-03T07:06:51;96787.06;;;3.35;79.62
56668;BME280;42542;48.360;10.958;2023-04-03T07:09:58;96792.13;;;3.38;79.57
56668;BME280;42542;48.360;10.958;2023-04-03T07:13:01;96800.50;;;3.44;79.08
56668;BME280;42542;48.360;10.958;2023-04-03T07:16:05;96803.00;;;3.46;79.22
56668;BME280;42542;48.360;10.958;2023-04-03T07:19:16;96800.06;;;3.50;78.87
56668;BME280;42542;48.360;10.958;2023-04-03T07:22:30;96797.19;;;3.53;78.15
56668;BME280;42542;48.360;10.958;2023-04-03T07:25:47;96802.38;;;3.55;78.34
56668;BME280;42542;48.360;10.958;2023-04-03T07:29:10;96806.63;;;3.58;78.08
56668;BME280;42542;48.360;10.958;2023-04-03T07:32:15;96816.88;;;3.62;78.40
56668;BME280;42542;48.360;10.958;2023-04-03T07:35:26;96811.59;;;3.62;78.15
56668;BME280;42542;48.360;10.958;2023-04-03T07:38:30;96820.06;;;3.67;78.23
56668;BME280;42542;48.360;10.958;2023-04-03T07:41:36;96818.91;;;3.71;78.40
56668;BME280;42542;48.360;10.958;2023-04-03T07:44:50;96821.22;;;3.76;78.04
56668;BME280;42542;48.360;10.958;2023-04-03T07:47:56;96824.50;;;3.79;77.75
56668;BME280;42542;48.360;10.958;2023-04-03T07:51:02;96826.81;;;3.84;77.02
56668;BME280;42542;48.360;10.958;2023-04-03T07:54:16;96824.94;;;3.86;77.19
56668;BME280;42542;48.360;10.958;2023-04-03T07:57:20;96826.81;;;3.84;76.99
56668;BME280;42542;48.360;10.958;2023-04-03T08:00:26;96831.69;;;3.90;77.28
56668;BME280;42542;48.360;10.958;2023-04-03T08:03:33;96828.84;;;3.93;76.98
56668;BME280;42542;48.360;10.958;2023-04-03T08:06:44;96833.19;;;3.94;76.00
56668;BME280;42542;48.360;10.958;2023-04-03T08:09:49;96841.63;;;3.99;76.87
56668;BME280;42542;48.360;10.958;2023-04-03T08:13:05;96840.34;;;4.05;76.15
56668;BME280;42542;48.360;10.958;2023-04-03T08:16:18;96837.28;;;4.11;76.32
56668;BME280;42542;48.360;10.958;2023-04-03T08:19:27;96829.47;;;4.09;75.72
56668;BME280;42542;48.360;10.958;2023-04-03T08:22:37;96835.19;;;4.16;75.42
56668;BME280;42542;48.360;10.958;2023-04-03T08:25:43;96841.00;;;4.21;75.54
56668;BME280;42542;48.360;10.958;2023-04-03T08:28:45;96843.63;;;4.21;75.21
56668;BME280;42542;48.360;10.958;2023-04-03T08:31:51;96835.50;;;4.24;74.60
56668;BME280;42542;48.360;10.958;2023-04-03T08:34:57;96842.03;;;4.31;74.69
56668;BME280;42542;48.360;10.958;2023-04-03T08:38:03;96839.91;;;4.36;74.09
56668;BME280;42542;48.360;10.958;2023-04-03T08:45:01;96844.56;;;4.45;72.94
56668;BME280;42542;48.360;10.958;2023-04-03T08:48:30;96845.72;;;4.54;74.06
56668;BME280;42542;48.360;10.958;2023-04-03T08:51:51;96843.13;;;4.65;73.83
56668;BME280;42542;48.360;10.958;2023-04-03T08:55:13;96847.88;;;4.72;73.62
56668;BME280;42542;48.360;10.958;2023-04-03T08:58:30;96850.16;;;4.77;72.32
56668;BME280;42542;48.360;10.958;2023-04-03T09:01:40;96850.81;;;4.81;72.27
56668;BME280;42542;48.360;10.958;2023-04-03T09:04:47;96850.72;;;4.82;72.07
56668;BME280;42542;48.360;10.958;2023-04-03T09:08:16;96842.22;;;4.90;72.33
56668;BME280;42542;48.360;10.958;2023-04-03T09:15:29;96849.34;;;5.00;72.47
56668;BME280;42542;48.360;10.958;2023-04-03T09:18:45;96843.59;;;5.06;72.35
56668;BME280;42542;48.360;10.958;2023-04-03T09:21:57;96840.72;;;5.09;70.76
56668;BME280;42542;48.360;10.958;2023-04-03T09:25:34;96849.19;;;5.15;70.62
56668;BME280;42542;48.360;10.958;2023-04-03T09:28:41;96847.78;;;5.22;70.79
56668;BME280;42542;48.360;10.958;2023-04-03T09:31:59;96844.75;;;5.26;70.38
56668;BME280;42542;48.360;10.958;2023-04-03T09:35:22;96842.63;;;5.31;70.71
56668;BME280;42542;48.360;10.958;2023-04-03T09:39:10;96842.06;;;5.39;70.79
56668;BME280;42542;48.360;10.958;2023-04-03T09:42:20;96846.53;;;5.38;69.70
56668;BME280;42542;48.360;10.958;2023-04-03T09:45:35;96847.59;;;5.36;69.89
56668;BME280;42542;48.360;10.958;2023-04-03T09:49:01;96844.59;;;5.40;69.78
56668;BME280;42542;48.360;10.958;2023-04-03T09:52:25;96840.13;;;5.41;70.20
56668;BME280;42542;48.360;10.958;2023-04-03T09:55:42;96841.94;;;5.40;69.26
56668;BME280;42542;48.360;10.958;2023-04-03T09:58:48;96843.63;;;5.41;70.17
56668;BME280;42542;48.360;10.958;2023-04-03T10:02:00;96838.31;;;5.41;69.72
56668;BME280;42542;48.360;10.958;2023-04-03T10:05:36;96844.09;;;5.35;68.23
56668;BME280;42542;48.360;10.958;2023-04-03T10:08:42;96844.66;;;5.28;68.23
56668;BME280;42542;48.360;10.958;2023-04-03T10:12:04;96840.44;;;5.25;67.86
56668;BME280;42542;48.360;10.958;2023-04-03T10:15:15;96840.66;;;5.22;68.24
56668;BME280;42542;48.360;10.958;2023-04-03T10:18:36;96838.88;;;5.23;68.74
56668;BME280;42542;48.360;10.958;2023-04-03T10:25:46;96837.41;;;5.19;67.79
56668;BME280;42542;48.360;10.958;2023-04-03T10:43:33;96850.59;;;5.07;67.51
56668;BME280;42542;48.360;10.958;2023-04-03T10:46:53;96849.84;;;5.05;67.37
56668;BME280;42542;48.360;10.958;2023-04-03T10:57:16;96842.66;;;5.07;68.96
56668;BME280;42542;48.360;10.958;2023-04-03T11:00:33;96840.63;;;5.11;69.12
56668;BME280;42542;48.360;10.958;2023-04-03T11:03:47;96849.53;;;5.10;69.03
56668;BME280;42542;48.360;10.958;2023-04-03T11:07:15;96840.00;;;5.07;68.96
56668;BME280;42542;48.360;10.958;2023-04-03T11:10:43;96837.44;;;5.06;68.46
56668;BME280;42542;48.360;10.958;2023-04-03T11:14:11;96835.38;;;4.98;68.15
56668;BME280;42542;48.360;10.958;2023-04-03T11:17:36;96841.84;;;4.94;68.12
56668;BME280;42542;48.360;10.958;2023-04-03T11:21:03;96838.81;;;4.88;68.28
56668;BME280;42542;48.360;10.958;2023-04-03T11:24:27;96829.16;;;4.87;68.67
56668;BME280;42542;48.360;10.958;2023-04-03T11:27:47;96828.81;;;4.91;69.18
56668;BME280;42542;48.360;10.958;2023-04-03T11:31:09;96825.31;;;4.91;68.13
56668;BME280;42542;48.360;10.958;2023-04-03T11:34:42;96824.63;;;4.89;68.26
56668;BME280;42542;48.360;10.958;2023-04-03T11:37:52;96828.59;;;4.94;68.40
56668;BME280;42542;48.360;10.958;2023-04-03T11:40:57;96828.50;;;4.96;67.55
56668;BME280;42542;48.360;10.958;2023-04-03T11:44:38;96826.47;;;4.99;66.49
56668;BME280;42542;48.360;10.958;2023-04-03T11:47:51;96822.13;;;4.98;65.57
56668;BME280;42542;48.360;10.958;2023-04-03T11:51:40;96827.41;;;4.98;63.99
56668;BME280;42542;48.360;10.958;2023-04-03T11:55:01;96824.91;;;4.97;65.73
56668;BME280;42542;48.360;10.958;2023-04-03T12:08:52;96814.06;;;5.00;63.72
56668;BME280;42542;48.360;10.958;2023-04-03T12:12:00;96801.44;;;5.03;63.95
56668;BME280;42542;48.360;10.958;2023-04-03T12:26:50;96781.09;;;5.39;63.00
56668;BME280;42542;48.360;10.958;2023-04-03T12:30:22;96790.16;;;5.59;62.06
56668;BME280;42542;48.360;10.958;2023-04-03T12:37:51;96777.91;;;5.80;59.85
56668;BME280;42542;48.360;10.958;2023-04-03T12:41:27;96772.38;;;5.83;57.95
56668;BME280;42542;48.360;10.958;2023-04-03T12:45:08;96764.44;;;5.94;57.76
56668;BME280;42542;48.360;10.958;2023-04-03T12:48:25;96771.69;;;6.03;57.88
56668;BME280;42542;48.360;10.958;2023-04-03T12:51:42;96766.13;;;6.06;55.91
56668;BME280;42542;48.360;10.958;2023-04-03T12:54:46;96753.34;;;6.11;56.19
56668;BME280;42542;48.360;10.958;2023-04-03T12:57:49;96752.59;;;6.20;56.45
56668;BME280;42542;48.360;10.958;2023-04-03T13:01:13;96748.03;;;6.34;56.01
56668;BME280;42542;48.360;10.958;2023-04-03T13:04:16;96755.84;;;6.46;56.98
56668;BME280;42542;48.360;10.958;2023-04-03T13:07:37;96755.56;;;6.60;54.78
56668;BME280;42542;48.360;10.958;2023-04-03T13:10:56;96755.06;;;6.66;54.69
56668;BME280;42542;48.360;10.958;2023-04-03T13:14:02;96749.13;;;6.74;54.33
56668;BME280;42542;48.360;10.958;2023-04-03T13:17:24;96753.47;;;6.75;52.42
56668;BME280;42542;48.360;10.958;2023-04-03T13:20:33;96756.38;;;6.72;51.50
56668;BME280;42542;48.360;10.958;2023-04-03T13:23:58;96762.59;;;6.61;51.49
56668;BME280;42542;48.360;10.958;2023-04-03T13:27:18;96766.69;;;6.54;52.18
56668;BME280;42542;48.360;10.958;2023-04-03T13:30:34;96765.50;;;6.47;52.42
56668;BME280;42542;48.360;10.958;2023-04-03T13:37:27;96767.94;;;6.28;49.25
56668;BME280;42542;48.360;10.958;2023-04-03T13:40:46;96764.34;;;6.18;49.45
56668;BME280;42542;48.360;10.958;2023-04-03T13:43:50;96762.28;;;6.10;50.13
56668;BME280;42542;48.360;10.958;2023-04-03T13:47:24;96757.56;;;6.03;50.01
56668;BME280;42542;48.360;10.958;2023-04-03T13:51:02;96752.28;;;6.03;50.07
56668;BME280;42542;48.360;10.958;2023-04-03T13:54:43;96750.09;;;6.08;50.64
56668;BME280;42542;48.360;10.958;2023-04-03T14:01:11;96748.41;;;6.18;49.34
56668;BME280;42542;48.360;10.958;2023-04-03T14:04:27;96746.94;;;6.25;49.73
56668;BME280;42542;48.360;10.958;2023-04-03T14:07:33;96740.19;;;6.32;49.24
56668;BME280;42542;48.360;10.958;2023-04-03T14:10:39;96731.25;;;6.33;47.36
56668;BME280;42542;48.360;10.958;2023-04-03T14:13:46;96737.59;;;6.42;48.83
56668;BME280;42542;48.360;10.958;2023-04-03T14:17:17;96730.22;;;6.56;48.92
56668;BME280;42542;48.360;10.958;2023-04-03T14:20:27;96729.69;;;6.74;48.32
56668;BME280;42542;48.360;10.958;2023-04-03T14:23:34;96735.09;;;6.83;47.94
56668;BME280;42542;48.360;10.958;2023-04-03T14:26:36;96733.03;;;6.87;47.28
56668;BME280;42542;48.360;10.958;2023-04-03T14:29:38;96730.03;;;6.80;46.80
56668;BME280;42542;48.360;10.958;2023-04-03T14:32:44;96736.19;;;6.81;47.17
56668;BME280;42542;48.360;10.958;2023-04-03T14:35:46;96736.31;;;6.79;46.25
56668;BME280;42542;48.360;10.958;2023-04-03T14:38:50;96726.91;;;6.75;45.47
56668;BME280;42542;48.360;10.958;2023-04-03T14:42:00;96730.41;;;6.76;44.40
56668;BME280;42542;48.360;10.958;2023-04-03T14:45:09;96731.88;;;6.69;43.80
56668;BME280;42542;48.360;10.958;2023-04-03T14:48:25;96730.16;;;6.79;44.66
56668;BME280;42542;48.360;10.958;2023-04-03T14:51:29;96720.19;;;6.92;44.89
56668;BME280;42542;48.360;10.958;2023-04-03T14:54:33;96718.97;;;6.96;43.10
56668;BME280;42542;48.360;10.958;2023-04-03T14:57:39;96715.34;;;6.97;43.10
56668;BME280;42542;48.360;10.958;2023-04-03T15:00:51;96712.28;;;6.81;41.18
56668;BME280;42542;48.360;10.958;2023-04-03T15:03:57;96720.47;;;6.89;42.75
56668;BME280;42542;48.360;10.958;2023-04-03T15:07:02;96714.75;;;6.93;42.11
56668;BME280;42542;48.360;10.958;2023-04-03T15:10:26;96724.38;;;7.05;42.84
56668;BME280;42542;48.360;10.958;2023-04-03T15:13:28;96720.63;;;7.29;43.02
56668;BME280;42542;48.360;10.958;2023-04-03T15:16:33;96714.94;;;7.64;43.14
56668;BME280;42542;48.360;10.958;2023-04-03T15:19:38;96720.56;;;7.91;39.96
56668;BME280;42542;48.360;10.958;2023-04-03T15:23:01;96718.34;;;7.96;39.42
56668;BME280;42542;48.360;10.958;2023-04-03T15:26:07;96711.47;;;7.94;39.67
56668;BME280;42542;48.360;10.958;2023-04-03T15:29:10;96716.00;;;8.03;39.43
56668;BME280;42542;48.360;10.958;2023-04-03T15:32:12;96724.41;;;8.08;40.16
56668;BME280;42542;48.360;10.958;2023-04-03T15:35:14;96718.59;;;8.23;39.20
56668;BME280;42542;48.360;10.958;2023-04-03T15:38:19;96712.53;;;8.52;38.68
56668;BME280;42542;48.360;10.958;2023-04-03T15:41:26;96711.16;;;8.86;39.88
56668;BME280;42542;48.360;10.958;2023-04-03T15:44:28;96715.69;;;9.05;38.36
56668;BME280;42542;48.360;10.958;2023-04-03T15:47:31;96716.94;;;9.11;38.01
56668;BME280;42542;48.360;10.958;2023-04-03T15:50:35;96713.00;;;8.95;38.54
56668;BME280;42542;48.360;10.958;2023-04-03T15:53:39;96717.34;;;8.77;37.93
56668;BME280;42542;48.360;10.958;2023-04-03T15:56:58;96711.56;;;8.63;36.87
56668;BME280;42542;48.360;10.958;2023-04-03T16:00:11;96712.56;;;8.71;38.26
56668;BME280;42542;48.360;10.958;2023-04-03T16:03:21;96718.31;;;8.95;37.06
56668;BME280;42542;48.360;10.958;2023-04-03T16:06:33;96715.94;;;9.12;36.51
56668;BME280;42542;48.360;10.958;2023-04-03T16:09:36;96715.25;;;9.29;36.85
56668;BME280;42542;48.360;10.958;2023-04-03T16:12:40;96719.59;;;9.39;36.51
56668;BME280;42542;48.360;10.958;2023-04-03T16:15:44;96716.25;;;9.28;36.32
56668;BME280;42542;48.360;10.958;2023-04-03T16:18:50;96723.25;;;9.19;36.84
56668;BME280;42542;48.360;10.958;2023-04-03T16:21:55;96721.69;;;9.17;37.28
56668;BME280;42542;48.360;10.958;2023-04-03T16:25:01;96724.81;;;9.22;37.23
56668;BME280;42542;48.360;10.958;2023-04-03T16:28:14;96728.00;;;9.16;37.44
56668;BME280;42542;48.360;10.958;2023-04-03T16:31:25;96731.09;;;9.01;37.21
56668;BME280;42542;48.360;10.958;2023-04-03T16:34:30;96725.22;;;8.79;37.10
56668;BME280;42542;48.360;10.958;2023-04-03T16:37:44;96730.34;;;8.61;36.75
56668;BME280;42542;48.360;10.958;2023-04-03T16:40:47;96740.00;;;8.52;37.41
56668;BME280;42542;48.360;10.958;2023-04-03T16:44:00;96743.34;;;8.35;37.87
56668;BME280;42542;48.360;10.958;2023-04-03T16:47:12;96744.19;;;8.05;38.37
56668;BME280;42542;48.360;10.958;2023-04-03T16:50:24;96742.41;;;7.85;38.27
56668;BME280;42542;48.360;10.958;2023-04-03T16:53:29;96748.13;;;7.60;38.17
56668;BME280;42542;48.360;10.958;2023-04-03T16:56:34;96747.41;;;7.37;38.82
56668;BME280;42542;48.360;10.958;2023-04-03T16:59:41;96753.88;;;7.23;39.65
56668;BME280;42542;48.360;10.958;2023-04-03T17:02:45;96756.53;;;7.02;39.33
56668;BME280;42542;48.360;10.958;2023-04-03T17:05:49;96750.19;;;6.83;39.87
56668;BME280;42542;48.360;10.958;2023-04-03T17:09:07;96750.72;;;6.65;40.15
56668;BME280;42542;48.360;10.958;2023-04-03T17:12:11;96763.09;;;6.55;41.21
56668;BME280;42542;48.360;10.958;2023-04-03T17:15:16;96762.00;;;6.47;41.89
56668;BME280;42542;48.360;10.958;2023-04-03T17:18:21;96768.28;;;6.35;41.99
56668;BME280;42542;48.360;10.958;2023-04-03T17:21:33;96765.41;;;6.15;41.45
56668;BME280;42542;48.360;10.958;2023-04-03T17:24:35;96762.41;;;6.09;41.82
56668;BME280;42542;48.360;10.958;2023-04-03T17:27:40;96770.38;;;5.98;41.93
56668;BME280;42542;48.360;10.958;2023-04-03T17:30:44;96773.94;;;5.85;42.32
56668;BME280;42542;48.360;10.958;2023-04-03T17:33:49;96782.47;;;5.78;42.75
56668;BME280;42542;48.360;10.958;2023-04-03T17:36:53;96775.97;;;5.71;43.15
56668;BME280;42542;48.360;10.958;2023-04-03T17:39:59;96773.19;;;5.61;43.72
56668;BME280;42542;48.360;10.958;2023-04-03T17:43:03;96779.66;;;5.46;43.64
56668;BME280;42542;48.360;10.958;2023-04-03T17:46:09;96780.72;;;5.32;43.63
56668;BME280;42542;48.360;10.958;2023-04-03T17:49:14;96778.75;;;5.23;44.39
56668;BME280;42542;48.360;10.958;2023-04-03T17:52:23;96778.59;;;5.14;44.51
56668;BME280;42542;48.360;10.958;2023-04-03T17:55:28;96782.06;;;5.03;45.04
56668;BME280;42542;48.360;10.958;2023-04-03T17:58:33;96780.81;;;4.96;45.14